This is the latest recevied weather packets stored in our database for station/object WB5RFA. If no packets are shown the sender has not sent any weather packets the latest 10 day(s).
| Time | Temp. | Humidity | Pressure | Rain* | Wind** | Luminosity | Snow |
|---|---|---|---|---|---|---|---|
| 1777755190 | 17.78° C | 31% | 1018.7 hPa | 0 mm | - | - | - |
| 1777754711 | 17.22° C | 33% | 1018.7 hPa | 0 mm | - | - | - |
| 1777754230 | 17.78° C | 31% | 1018.8 hPa | 0 mm | - | - | - |
| 1777753751 | 17.78° C | 33% | 1018.8 hPa | 0 mm | - | - | - |
| 1777753270 | 17.78° C | 33% | 1018.9 hPa | 0 mm | - | - | - |
| 1777752792 | 17.22° C | 32% | 1019 hPa | 0 mm | - | - | - |
| 1777752311 | 17.22° C | 34% | 1019 hPa | 0 mm | - | - | - |
| 1777751831 | 17.22° C | 34% | 1019.1 hPa | 0 mm | - | - | - |
| 1777751350 | 17.22° C | 33% | 1019.1 hPa | 0 mm | - | - | - |
| 1777750871 | 16.67° C | 33% | 1019.2 hPa | 0 mm | - | - | - |
| 1777750391 | 16.67° C | 33% | 1019.3 hPa | 0 mm | - | - | - |
| 1777749912 | 16.67° C | 33% | 1019.4 hPa | 0 mm | - | - | - |
| 1777749431 | 16.67° C | 36% | 1019.4 hPa | 0 mm | - | - | - |
| 1777748951 | 16.67° C | 34% | 1019.4 hPa | 0 mm | - | - | - |
| 1777748470 | 16.11° C | 38% | 1019.5 hPa | 0 mm | - | - | - |
| 1777747991 | 16.67° C | 35% | 1019.6 hPa | 0 mm | - | - | - |
| 1777747510 | 16.67° C | 36% | 1019.8 hPa | 0 mm | - | - | - |
| 1777747031 | 16.11° C | 37% | 1020 hPa | 0 mm | - | - | - |
| 1777746550 | 16.67° C | 34% | 1020 hPa | 0 mm | - | - | - |
| 1777746072 | 16.67° C | 36% | 1020.1 hPa | 0 mm | - | - | - |
| 1777745591 | 16.67° C | 34% | 1020.3 hPa | 0 mm | - | - | - |
| 1777745112 | 16.67° C | 35% | 1020.3 hPa | 0 mm | - | - | - |
| 1777744631 | 15.56° C | 36% | 1020.4 hPa | 0 mm | - | - | - |
| 1777744150 | 16.11° C | 35% | 1020.5 hPa | 0 mm | - | - | - |
| 1777743672 | 16.11° C | 36% | 1020.7 hPa | 0 mm | - | - | - |
* Rain latest hour (hover to see other rain measurements)
** Current wind speed in m/s (hover to see current wind gust speed)